This is the latest recevied weather packets stored in our database for station/object OK1OBR-13. If no packets are shown the sender has not sent any weather packets the latest 1 day(s).
| Time | Temp. | Humidity | Pressure | Rain* | Wind** | Luminosity | Snow |
|---|---|---|---|---|---|---|---|
| 1777988941 | 22.22° C | 42% | 928.9 hPa | 0 mm | 0.45 m/s, 159° | - | - |
| 1777988880 | 22.22° C | 42% | 929.1 hPa | 0 mm | 0.45 m/s, 137° | - | - |
| 1777988821 | 22.22° C | 41% | 929.1 hPa | 0 mm | 0.89 m/s, 147° | - | - |
| 1777988761 | 22.22° C | 42% | 929.2 hPa | 0 mm | 0.89 m/s, 176° | - | - |
| 1777988705 | 22.22° C | 44% | 929.3 hPa | 0 mm | 0.45 m/s, 165° | - | - |
| 1777988641 | 22.22° C | 44% | 929.2 hPa | 0 mm | 0.89 m/s, 174° | - | - |
| 1777988581 | 22.22° C | 44% | 929.2 hPa | 0 mm | 0.89 m/s, 128° | - | - |
| 1777988521 | 22.22° C | 41% | 929.4 hPa | 0 mm | 0.89 m/s, 174° | - | - |
| 1777988461 | 22.22° C | 43% | 929.3 hPa | 0 mm | 0.89 m/s, 162° | - | - |
| 1777988401 | 22.22° C | 41% | 929.3 hPa | 0 mm | 0.89 m/s, 172° | - | - |
| 1777988341 | 22.22° C | 41% | 929.3 hPa | 0 mm | 0.89 m/s, 157° | - | - |
| 1777988281 | 22.22° C | 43% | 929.2 hPa | 0 mm | 1.34 m/s, 143° | - | - |
| 1777988221 | 22.22° C | 41% | 929.1 hPa | 0 mm | 0.45 m/s, 200° | - | - |
| 1777988161 | 22.22° C | 42% | 929.1 hPa | 0 mm | 0.45 m/s, 210° | - | - |
| 1777988102 | 22.22° C | 41% | 929.2 hPa | 0 mm | 0.45 m/s, 215° | - | - |
| 1777988042 | 22.22° C | 41% | 929 hPa | 0 mm | 1.34 m/s, 171° | - | - |
| 1777987981 | 22.22° C | 40% | 929.3 hPa | 0 mm | 1.34 m/s, 201° | - | - |
| 1777987921 | 22.22° C | 42% | 929.4 hPa | 0 mm | 0.89 m/s, 196° | - | - |
| 1777987863 | 22.22° C | 42% | 929.4 hPa | 0 mm | 0.89 m/s, 196° | - | - |
| 1777987802 | 22.22° C | 42% | 929.4 hPa | 0 mm | 0.89 m/s, 194° | - | - |
| 1777987741 | 22.22° C | 42% | 929.2 hPa | 0 mm | 0.89 m/s, 210° | - | - |
| 1777987681 | 22.22° C | 41% | 929.5 hPa | 0 mm | 0.45 m/s, 209° | - | - |
| 1777987621 | 22.22° C | 41% | 929.4 hPa | 0 mm | 0.45 m/s, 211° | - | - |
| 1777987561 | 22.22° C | 41% | 929.2 hPa | 0 mm | 0.45 m/s, 226° | - | - |
| 1777987502 | 22.22° C | 41% | 929.4 hPa | 0 mm | 0.45 m/s, 222° | - | - |
* Rain since midnight (hover to see other rain measurements)
** Current wind speed in m/s (hover to see current wind gust speed)